createdAt,value
2022-08-23T00:02:26.235Z,48.74
2022-08-23T00:05:08.033Z,49.49
2022-08-23T00:07:42.034Z,50.63
2022-08-23T00:10:11.335Z,50.34
2022-08-23T00:12:38.056Z,50.41
2022-08-23T00:15:05.454Z,50.13
2022-08-23T00:17:34.294Z,50.11
2022-08-23T00:20:06.367Z,50.26
2022-08-23T00:22:33.339Z,50.22
2022-08-23T00:24:59.790Z,49.93
2022-08-23T00:27:26.900Z,50.17
2022-08-23T00:29:55.253Z,50.51
2022-08-23T00:32:28.905Z,50.01
2022-08-23T00:34:56.422Z,49.82
2022-08-23T00:37:24.611Z,49.74
2022-08-23T00:39:51.924Z,49.35
2022-08-23T00:43:14.943Z,50.13
2022-08-23T00:46:21.098Z,50.22
2022-08-23T00:48:47.893Z,50.78
2022-08-23T00:51:22.466Z,50.84
2022-08-23T00:53:53.561Z,51.29
2022-08-23T00:56:22.984Z,51.87
2022-08-23T00:58:50.204Z,52.34
2022-08-23T01:01:18.357Z,51.74
2022-08-23T01:03:59.094Z,51.52
2022-08-23T01:06:58.350Z,51.42
2022-08-23T01:09:25.799Z,52.04
2022-08-23T01:12:07.530Z,52.02
2022-08-23T01:15:01.566Z,51.60
2022-08-23T01:17:38.317Z,52.06
2022-08-23T01:20:12.945Z,52.13
2022-08-23T01:22:55.189Z,52.43
2022-08-23T01:25:24.533Z,52.17
2022-08-23T01:27:51.976Z,52.30
2022-08-23T01:30:23.318Z,52.46
2022-08-23T01:32:56.353Z,52.40
2022-08-23T01:35:30.976Z,52.31
2022-08-23T01:37:57.540Z,52.16
2022-08-23T01:40:24.331Z,52.12
2022-08-23T01:42:51.585Z,52.64
2022-08-23T01:45:18.134Z,52.60
2022-08-23T01:47:44.706Z,52.43
2022-08-23T01:50:13.126Z,52.51
2022-08-23T01:52:47.174Z,52.33
2022-08-23T01:55:16.614Z,52.79
2022-08-23T01:57:48.348Z,53.03
2022-08-23T02:00:19.804Z,53.57
2022-08-23T02:02:47.123Z,53.44
2022-08-23T02:05:14.434Z,53.93
2022-08-23T02:07:46.982Z,55.15
2022-08-23T02:10:14.650Z,55.15
2022-08-23T02:12:41.351Z,55.70
2022-08-23T02:15:13.814Z,55.79
2022-08-23T02:17:44.352Z,56.33
2022-08-23T02:20:11.945Z,57.05
2022-08-23T02:22:39.465Z,56.54
2022-08-23T02:25:07.197Z,56.85
2022-08-23T02:27:33.736Z,56.86
2022-08-23T02:30:02.136Z,56.58
2022-08-23T02:32:29.706Z,56.14
2022-08-23T02:35:04.863Z,56.24
2022-08-23T02:37:34.209Z,56.59
2022-08-23T02:40:00.989Z,56.13
2022-08-23T02:42:28.611Z,56.31
2022-08-23T02:44:55.477Z,56.81
2022-08-23T02:47:22.202Z,57.82
2022-08-23T02:50:06.186Z,58.02
2022-08-23T02:52:33.710Z,58.00
2022-08-23T02:55:00.501Z,57.93
2022-08-23T02:57:27.795Z,58.19
2022-08-23T02:59:59.153Z,58.34
2022-08-23T03:02:25.707Z,58.51
2022-08-23T03:04:52.355Z,59.55
2022-08-23T03:07:19.270Z,59.85
2022-08-23T03:09:46.210Z,59.64
2022-08-23T03:12:12.964Z,59.69
2022-08-23T03:14:43.865Z,59.47
2022-08-23T03:17:11.206Z,59.86
2022-08-23T03:19:37.988Z,60.25
2022-08-23T03:22:04.648Z,60.96
2022-08-23T03:24:31.284Z,60.81
2022-08-23T03:26:59.585Z,60.82
2022-08-23T03:29:26.159Z,60.04
2022-08-23T03:31:59.636Z,59.58
2022-08-23T03:34:27.461Z,60.33
2022-08-23T03:36:54.280Z,60.47
2022-08-23T03:39:20.742Z,59.84
2022-08-23T03:41:48.216Z,59.77
2022-08-23T03:44:14.970Z,59.77
2022-08-23T03:46:43.893Z,59.76
2022-08-23T03:49:10.536Z,60.40
2022-08-23T03:51:58.297Z,61.87
2022-08-23T03:54:24.886Z,61.94
2022-08-23T03:56:59.678Z,61.95
2022-08-23T03:59:30.121Z,61.52
2022-08-23T04:01:57.133Z,60.91
2022-08-23T04:04:23.704Z,60.24
2022-08-23T04:07:20.813Z,60.19
2022-08-23T04:09:54.829Z,59.93
2022-08-23T04:12:23.353Z,60.33
2022-08-23T04:14:49.802Z,61.07
2022-08-23T04:17:17.794Z,61.27
2022-08-23T04:19:44.391Z,61.00
2022-08-23T04:22:13.657Z,61.95
2022-08-23T04:24:41.955Z,62.50
2022-08-23T04:27:08.574Z,62.72
2022-08-23T04:29:35.164Z,61.84
2022-08-23T04:32:05.245Z,62.14
2022-08-23T04:34:34.855Z,62.16
2022-08-23T04:37:02.102Z,61.72
2022-08-23T04:39:29.326Z,61.47
2022-08-23T04:42:15.898Z,61.42
2022-08-23T04:44:43.636Z,61.55
2022-08-23T04:47:10.174Z,61.55
2022-08-23T04:49:36.732Z,62.37
2022-08-23T04:52:03.658Z,63.45
2022-08-23T04:54:31.489Z,62.90
2022-08-23T04:57:18.670Z,63.01
2022-08-23T04:59:45.612Z,62.91
2022-08-23T05:02:12.469Z,62.78
2022-08-23T05:04:39.152Z,62.47
2022-08-23T05:07:05.645Z,62.51
2022-08-23T05:09:33.297Z,62.13
2022-08-23T05:11:59.732Z,62.02
2022-08-23T05:14:27.997Z,62.68
2022-08-23T05:16:54.902Z,62.39
2022-08-23T05:19:24.797Z,62.05
2022-08-23T05:21:56.359Z,62.67
2022-08-23T05:24:27.990Z,62.85
2022-08-23T05:26:54.427Z,63.43
2022-08-23T05:29:21.465Z,63.20
2022-08-23T05:31:50.362Z,63.18
2022-08-23T05:34:22.444Z,62.22
2022-08-23T05:36:56.482Z,62.46
2022-08-23T05:39:36.448Z,62.20
2022-08-23T05:42:11.278Z,61.42
2022-08-23T05:44:38.255Z,66.14
2022-08-23T05:47:10.642Z,63.36
2022-08-23T05:49:45.007Z,60.11
2022-08-23T05:52:13.572Z,58.37
2022-08-23T05:54:42.627Z,56.81
2022-08-23T05:57:24.514Z,55.43
2022-08-23T05:59:50.994Z,54.02
2022-08-23T06:02:17.432Z,53.01
2022-08-23T06:04:43.949Z,52.04
2022-08-23T06:07:11.661Z,51.09
2022-08-23T06:09:39.060Z,49.81
2022-08-23T06:12:05.724Z,49.08
2022-08-23T06:14:32.323Z,48.06
2022-08-23T06:16:58.980Z,46.48
2022-08-23T06:19:27.254Z,46.84
2022-08-23T06:22:12.172Z,46.11
2022-08-23T06:24:41.667Z,45.37
2022-08-23T06:27:13.873Z,44.67
2022-08-23T06:29:41.148Z,44.07
2022-08-23T06:32:26.147Z,43.17
2022-08-23T06:35:38.223Z,42.85
2022-08-23T06:38:09.552Z,42.76
2022-08-23T06:40:49.063Z,43.13
2022-08-23T06:43:24.320Z,42.34
2022-08-23T06:46:08.966Z,41.85
2022-08-23T06:48:35.397Z,41.44
2022-08-23T06:51:02.002Z,41.63
2022-08-23T06:54:03.234Z,41.31
2022-08-23T06:57:01.071Z,40.50
2022-08-23T06:59:31.189Z,39.63
2022-08-23T07:02:21.209Z,40.29
2022-08-23T07:05:07.947Z,39.97
2022-08-23T07:07:44.295Z,39.32
2022-08-23T07:10:14.318Z,39.94
2022-08-23T07:12:42.729Z,39.71
2022-08-23T07:15:11.558Z,39.35
2022-08-23T07:17:38.656Z,39.15
2022-08-23T07:20:05.796Z,39.21
2022-08-23T07:22:34.904Z,38.12
2022-08-23T07:25:03.861Z,38.58
2022-08-23T07:27:31.446Z,38.08
2022-08-23T07:30:02.564Z,37.97
2022-08-23T07:32:30.048Z,37.55
2022-08-23T07:34:58.301Z,36.60
2022-08-23T07:37:26.320Z,36.29
2022-08-23T07:39:52.906Z,35.35
2022-08-23T07:42:25.322Z,35.40
2022-08-23T07:44:54.872Z,34.68
2022-08-23T07:47:24.208Z,34.87
2022-08-23T07:49:54.282Z,34.48
2022-08-23T07:52:20.853Z,33.75
2022-08-23T07:54:48.546Z,33.35
2022-08-23T07:57:45.506Z,33.64
2022-08-23T08:00:30.348Z,33.75
2022-08-23T08:03:25.540Z,32.83
2022-08-23T08:06:11.689Z,31.96
2022-08-23T08:08:40.975Z,31.55
2022-08-23T08:11:09.270Z,31.88
2022-08-23T08:13:38.508Z,31.87
2022-08-23T08:16:06.551Z,31.70
2022-08-23T08:18:35.962Z,32.14
2022-08-23T08:21:21.294Z,32.26
2022-08-23T08:23:58.797Z,31.59
2022-08-23T08:26:36.980Z,31.27
2022-08-23T08:29:04.548Z,30.91
2022-08-23T08:31:34.549Z,30.47
2022-08-23T08:34:01.209Z,30.17
2022-08-23T08:36:49.426Z,29.87
2022-08-23T08:39:22.176Z,30.06
2022-08-23T08:42:20.556Z,29.83
2022-08-23T08:44:55.131Z,29.05
2022-08-23T08:47:54.044Z,29.73
2022-08-23T08:50:36.905Z,29.43
2022-08-23T08:53:22.257Z,28.96
2022-08-23T08:56:32.909Z,28.80
2022-08-23T08:59:16.099Z,28.83
2022-08-23T09:01:42.677Z,28.58
2022-08-23T09:04:13.672Z,28.57
2022-08-23T09:07:07.840Z,28.74
2022-08-23T09:09:50.027Z,28.39
2022-08-23T09:12:25.730Z,28.50
2022-08-23T09:15:19.773Z,28.43
2022-08-23T09:17:55.889Z,28.42
2022-08-23T09:20:32.994Z,27.96
2022-08-23T09:23:31.938Z,27.85
2022-08-23T09:26:03.858Z,26.71
2022-08-23T09:28:36.960Z,27.62
2022-08-23T09:31:08.325Z,27.14
2022-08-23T09:33:42.052Z,27.26
2022-08-23T09:36:26.506Z,26.74
2022-08-23T09:39:23.160Z,27.15
2022-08-23T09:42:00.713Z,28.27
2022-08-23T09:44:45.386Z,27.04
2022-08-23T09:47:17.096Z,27.99
2022-08-23T09:49:52.406Z,27.47
2022-08-23T09:52:37.586Z,27.10
2022-08-23T09:55:10.664Z,27.20
2022-08-23T09:57:48.022Z,26.88
2022-08-23T10:00:17.349Z,27.11
2022-08-23T10:02:49.157Z,26.83
2022-08-23T10:05:30.529Z,26.77
2022-08-23T10:08:02.708Z,26.67
2022-08-23T10:10:37.302Z,26.44
2022-08-23T10:13:06.248Z,25.87
2022-08-23T10:15:45.263Z,25.65
2022-08-23T10:18:29.747Z,25.61
2022-08-23T10:21:21.152Z,25.57
2022-08-23T10:24:19.687Z,25.77
2022-08-23T10:26:52.306Z,25.30
2022-08-23T10:29:40.979Z,25.95
2022-08-23T10:32:25.559Z,26.73
2022-08-23T10:35:17.776Z,27.31
2022-08-23T10:38:03.606Z,27.70
2022-08-23T10:40:45.876Z,27.57
2022-08-23T10:43:26.045Z,27.72
2022-08-23T10:46:00.232Z,27.96
2022-08-23T10:48:54.787Z,27.11
2022-08-23T10:51:31.886Z,26.75
2022-08-23T10:54:07.552Z,26.41
2022-08-23T10:56:35.324Z,25.81
2022-08-23T10:59:26.192Z,26.06
2022-08-23T11:02:15.399Z,26.62
2022-08-23T11:05:00.944Z,26.39
2022-08-23T11:07:38.967Z,27.45
2022-08-23T11:10:26.285Z,26.95
2022-08-23T11:13:00.599Z,26.99
2022-08-23T11:15:41.385Z,27.54
2022-08-23T11:18:34.850Z,27.57
2022-08-23T11:21:05.466Z,28.01
2022-08-23T11:23:45.148Z,28.61
2022-08-23T11:26:39.777Z,28.25
2022-08-23T11:29:07.142Z,27.88
2022-08-23T11:31:50.374Z,27.83
2022-08-23T11:34:25.830Z,27.71
2022-08-23T11:37:18.970Z,27.18
2022-08-23T11:39:59.739Z,26.92
2022-08-23T11:42:38.144Z,26.80
2022-08-23T11:45:27.358Z,26.81
2022-08-23T11:48:37.186Z,27.10
2022-08-23T11:51:17.972Z,26.47
2022-08-23T11:53:54.158Z,26.19
2022-08-23T11:56:26.650Z,26.05
2022-08-23T11:59:15.439Z,25.80
2022-08-23T12:01:44.798Z,27.06
2022-08-23T12:04:26.396Z,27.12
2022-08-23T12:07:01.640Z,27.62
2022-08-23T12:09:28.024Z,27.66
2022-08-23T12:11:57.631Z,26.96
2022-08-23T12:14:42.366Z,26.17
2022-08-23T12:17:11.831Z,26.71
2022-08-23T12:19:42.013Z,26.63
2022-08-23T12:22:21.629Z,26.02
2022-08-23T12:24:54.733Z,24.84
2022-08-23T12:27:41.967Z,26.11
2022-08-23T12:30:20.627Z,26.31
2022-08-23T12:32:47.209Z,26.43
2022-08-23T12:35:38.461Z,26.81
2022-08-23T12:38:17.796Z,26.01
2022-08-23T12:40:50.620Z,26.25
2022-08-23T12:43:22.829Z,26.42
2022-08-23T12:45:55.698Z,26.54
2022-08-23T12:48:25.697Z,26.26
2022-08-23T12:50:58.855Z,26.52
2022-08-23T12:53:33.790Z,26.12
2022-08-23T12:56:22.781Z,25.58
2022-08-23T12:59:03.322Z,25.58
2022-08-23T13:01:34.422Z,25.73
2022-08-23T13:04:14.234Z,25.89
2022-08-23T13:06:46.742Z,26.11
2022-08-23T13:09:38.247Z,25.98
2022-08-23T13:12:06.940Z,26.92
2022-08-23T13:14:48.516Z,26.28
2022-08-23T13:17:27.177Z,26.49
2022-08-23T13:20:22.885Z,25.63
2022-08-23T13:22:56.765Z,25.82
2022-08-23T13:25:36.467Z,25.31
2022-08-23T13:28:26.211Z,25.09
2022-08-23T13:31:05.878Z,25.40
2022-08-23T13:33:32.485Z,25.25
2022-08-23T13:36:17.260Z,24.86
2022-08-23T13:38:44.798Z,25.10
2022-08-23T13:41:39.015Z,24.52
2022-08-23T13:44:08.249Z,23.91
2022-08-23T13:46:43.302Z,24.00
2022-08-23T13:49:28.376Z,23.66
2022-08-23T13:52:24.607Z,24.63
2022-08-23T13:54:51.274Z,24.54
2022-08-23T13:57:21.081Z,25.54
2022-08-23T13:59:53.429Z,25.88
2022-08-23T14:02:22.705Z,25.66
2022-08-23T14:04:49.349Z,25.44
2022-08-23T14:07:16.053Z,25.61
2022-08-23T14:09:42.615Z,25.32
2022-08-23T14:12:14.385Z,25.82
2022-08-23T14:14:41.954Z,25.76
2022-08-23T14:17:12.853Z,25.75
2022-08-23T14:22:33.270Z,24.96
2022-08-23T14:24:59.710Z,25.15
2022-08-23T14:27:26.127Z,24.87
2022-08-23T14:29:52.585Z,24.90
2022-08-23T14:32:19.044Z,24.94
2022-08-23T14:34:45.435Z,24.72
2022-08-23T14:39:58.648Z,24.69
2022-08-23T14:42:25.319Z,25.03
2022-08-23T14:44:51.821Z,24.62
2022-08-23T14:47:19.123Z,24.71
2022-08-23T14:49:46.448Z,25.00
2022-08-23T14:52:14.927Z,24.76
2022-08-23T14:54:42.006Z,24.96
2022-08-23T14:57:09.772Z,24.80
2022-08-23T14:59:36.301Z,24.84
2022-08-23T15:02:06.529Z,24.81
2022-08-23T15:04:34.578Z,25.25
2022-08-23T15:07:18.908Z,24.77
2022-08-23T15:09:50.572Z,24.72
2022-08-23T15:15:12.534Z,25.24
2022-08-23T15:17:47.522Z,25.13
2022-08-23T15:20:14.193Z,25.40
2022-08-23T15:22:44.947Z,25.45
2022-08-23T15:25:13.256Z,25.63
2022-08-23T15:27:39.815Z,25.29
2022-08-23T15:30:07.405Z,24.98
2022-08-23T15:32:33.842Z,24.84
2022-08-23T15:35:01.509Z,25.24
2022-08-23T15:37:28.754Z,25.12
2022-08-23T15:39:55.293Z,25.25
2022-08-23T15:42:21.727Z,25.32
2022-08-23T15:44:49.253Z,25.39
2022-08-23T15:47:26.029Z,25.32
2022-08-23T15:49:52.998Z,25.42
2022-08-23T15:52:19.953Z,25.49
2022-08-23T15:54:47.212Z,25.62
2022-08-23T15:57:21.526Z,25.51
2022-08-23T15:59:47.996Z,25.54
2022-08-23T16:02:15.149Z,25.63
2022-08-23T16:04:42.001Z,26.07
2022-08-23T16:07:12.818Z,26.29
2022-08-23T16:09:39.261Z,26.14
2022-08-23T16:12:06.406Z,26.28
2022-08-23T16:14:33.130Z,26.12
2022-08-23T16:17:00.391Z,26.08
2022-08-23T16:19:27.943Z,26.37
2022-08-23T16:21:54.996Z,26.61
2022-08-23T16:24:24.664Z,26.54
2022-08-23T16:26:52.079Z,26.95
2022-08-23T16:29:20.175Z,27.02
2022-08-23T16:31:47.286Z,27.02
2022-08-23T16:34:17.108Z,27.21
2022-08-23T16:36:46.476Z,27.40
2022-08-23T16:39:16.351Z,27.67
2022-08-23T16:41:42.818Z,27.63
2022-08-23T16:44:09.292Z,27.68
2022-08-23T16:46:36.688Z,27.65
2022-08-23T16:49:03.397Z,28.77
2022-08-23T16:51:29.876Z,29.60
2022-08-23T16:54:01.584Z,30.21
2022-08-23T16:56:33.896Z,30.36
2022-08-23T16:59:01.308Z,30.47
2022-08-23T17:01:28.605Z,30.66
2022-08-23T17:03:55.269Z,30.54
2022-08-23T17:06:21.890Z,30.98
2022-08-23T17:08:48.394Z,30.91
2022-08-23T17:11:18.433Z,31.47
2022-08-23T17:13:45.571Z,31.61
2022-08-23T17:16:12.666Z,31.63
2022-08-23T17:18:39.449Z,32.15
2022-08-23T17:21:06.738Z,32.61
2022-08-23T17:23:33.514Z,33.28
2022-08-23T17:26:05.850Z,33.37
2022-08-23T17:28:32.777Z,33.15
2022-08-23T17:30:59.409Z,32.53
2022-08-23T17:33:25.879Z,33.19
2022-08-23T17:35:52.328Z,33.25
2022-08-23T17:38:20.175Z,33.37
2022-08-23T17:40:46.900Z,33.50
2022-08-23T17:43:13.785Z,33.95
2022-08-23T17:45:44.232Z,34.50
2022-08-23T17:48:13.101Z,34.80
2022-08-23T17:50:41.982Z,34.74
2022-08-23T17:53:08.408Z,34.52
2022-08-23T17:55:36.157Z,35.07
2022-08-23T17:58:04.344Z,34.98
2022-08-23T18:00:33.473Z,35.33
2022-08-23T18:03:00.747Z,35.32
2022-08-23T18:05:29.799Z,35.60
2022-08-23T18:07:56.277Z,35.37
2022-08-23T18:10:23.348Z,35.62
2022-08-23T18:12:49.810Z,35.79
2022-08-23T18:15:16.728Z,35.65
2022-08-23T18:17:43.152Z,36.48
2022-08-23T18:20:11.396Z,36.65
2022-08-23T18:22:39.073Z,37.06
2022-08-23T18:25:09.358Z,37.02
2022-08-23T18:27:54.291Z,37.55
2022-08-23T18:30:21.403Z,37.64
2022-08-23T18:32:47.839Z,37.73
2022-08-23T18:35:14.979Z,37.78
2022-08-23T18:37:42.109Z,38.32
2022-08-23T18:40:10.329Z,39.01
2022-08-23T18:42:37.588Z,39.17
2022-08-23T18:45:05.743Z,38.90
2022-08-23T18:47:32.817Z,38.22
2022-08-23T18:49:59.320Z,38.16
2022-08-23T18:52:27.498Z,37.96
2022-08-23T18:54:57.520Z,38.62
2022-08-23T18:57:24.257Z,38.92
2022-08-23T18:59:51.285Z,38.76
2022-08-23T19:02:17.789Z,39.30
2022-08-23T19:04:44.341Z,40.41
2022-08-23T19:07:10.865Z,41.21
2022-08-23T19:09:37.909Z,41.18
2022-08-23T19:12:06.413Z,41.04
2022-08-23T19:14:35.461Z,40.10
2022-08-23T19:17:03.678Z,40.48
2022-08-23T19:19:30.353Z,40.31
2022-08-23T19:21:58.141Z,40.57
2022-08-23T19:24:25.180Z,40.73
2022-08-23T19:26:52.480Z,40.51
2022-08-23T19:29:21.102Z,40.88
2022-08-23T19:31:50.262Z,41.31
2022-08-23T19:34:20.788Z,41.95
2022-08-23T19:36:53.596Z,41.69
2022-08-23T19:39:27.334Z,42.29
2022-08-23T19:41:54.195Z,41.64
2022-08-23T19:44:21.236Z,42.39
2022-08-23T19:46:48.334Z,42.45
2022-08-23T19:49:14.931Z,42.60
2022-08-23T19:51:42.924Z,43.22
2022-08-23T19:54:13.161Z,43.55
2022-08-23T19:56:53.024Z,42.38
2022-08-23T19:59:23.727Z,42.45
2022-08-23T20:01:52.811Z,42.78
2022-08-23T20:04:21.540Z,43.65
2022-08-23T20:06:48.741Z,43.32
2022-08-23T20:09:15.867Z,43.45
2022-08-23T20:11:42.544Z,43.71
2022-08-23T20:14:09.965Z,44.69
2022-08-23T20:16:37.811Z,44.42
2022-08-23T20:19:08.834Z,43.81
2022-08-23T20:21:35.877Z,44.49
2022-08-23T20:24:03.555Z,44.47
2022-08-23T20:26:40.683Z,45.56
2022-08-23T20:29:10.175Z,45.50
2022-08-23T20:31:45.931Z,45.99
2022-08-23T20:34:12.475Z,46.05
2022-08-23T20:36:38.952Z,46.57
2022-08-23T20:39:05.815Z,46.58
2022-08-23T20:41:36.954Z,47.38
2022-08-23T20:44:05.929Z,47.22
2022-08-23T20:46:32.430Z,47.50
2022-08-23T20:48:58.973Z,46.85
2022-08-23T20:51:27.925Z,46.90
2022-08-23T20:53:55.842Z,47.18
2022-08-23T20:56:23.367Z,46.43
2022-08-23T20:58:50.346Z,46.74
2022-08-23T21:01:17.148Z,47.19
2022-08-23T21:03:43.973Z,47.51
2022-08-23T21:06:22.130Z,47.33
2022-08-23T21:08:53.534Z,47.14
2022-08-23T21:11:22.094Z,46.96
2022-08-23T21:13:48.815Z,47.04
2022-08-23T21:16:16.676Z,47.20
2022-08-23T21:18:43.895Z,47.24
2022-08-23T21:21:10.811Z,47.59
2022-08-23T21:23:38.072Z,47.76
2022-08-23T21:26:06.301Z,48.36
2022-08-23T21:28:33.454Z,48.75
2022-08-23T21:31:10.281Z,48.90
2022-08-23T21:33:40.133Z,48.92
2022-08-23T21:36:07.638Z,50.13
2022-08-23T21:38:34.917Z,50.83
2022-08-23T21:41:05.120Z,50.78
2022-08-23T21:43:32.612Z,50.57
2022-08-23T21:45:59.170Z,50.65
2022-08-23T21:48:25.702Z,51.58
2022-08-23T21:50:52.432Z,51.70
2022-08-23T21:53:19.860Z,51.79
2022-08-23T21:55:46.432Z,51.41
2022-08-23T21:58:13.442Z,51.48
2022-08-23T22:00:41.182Z,50.71
2022-08-23T22:03:09.081Z,50.91
2022-08-23T22:05:41.130Z,50.73
2022-08-23T22:08:08.017Z,50.68
2022-08-23T22:10:37.200Z,51.22
2022-08-23T22:13:05.100Z,50.93
2022-08-23T22:15:32.604Z,51.41
2022-08-23T22:18:03.196Z,51.91
2022-08-23T22:20:31.471Z,52.43
2022-08-23T22:22:58.737Z,52.31
2022-08-23T22:25:25.504Z,52.41
2022-08-23T22:27:52.892Z,51.62
2022-08-23T22:30:20.072Z,51.53
2022-08-23T22:32:46.607Z,51.44
2022-08-23T22:35:13.738Z,51.64
2022-08-23T22:38:03.579Z,51.63
2022-08-23T22:40:30.207Z,51.22
2022-08-23T22:42:56.635Z,51.34
2022-08-23T22:45:23.952Z,51.30
2022-08-23T22:47:50.472Z,51.88
2022-08-23T22:50:16.981Z,51.17
2022-08-23T22:52:43.560Z,51.00
2022-08-23T22:55:10.141Z,50.92
2022-08-23T22:57:38.753Z,51.19
2022-08-23T23:00:07.094Z,51.04
2022-08-23T23:02:37.378Z,51.33
2022-08-23T23:05:04.159Z,51.49
2022-08-23T23:07:49.297Z,51.49
2022-08-23T23:10:15.806Z,51.32
2022-08-23T23:12:42.361Z,51.69
2022-08-23T23:15:09.480Z,51.40
2022-08-23T23:17:35.979Z,51.81
2022-08-23T23:20:22.023Z,52.21
2022-08-23T23:22:48.495Z,52.54
2022-08-23T23:25:14.916Z,52.71
2022-08-23T23:27:41.322Z,53.25
2022-08-23T23:30:09.824Z,53.02
2022-08-23T23:32:36.246Z,52.55
2022-08-23T23:35:02.855Z,52.13
2022-08-23T23:37:30.199Z,52.36
2022-08-23T23:39:56.966Z,52.77
2022-08-23T23:42:23.510Z,53.54
2022-08-23T23:44:50.108Z,53.66
2022-08-23T23:47:17.720Z,54.41
2022-08-23T23:49:44.690Z,54.67
2022-08-23T23:52:11.219Z,54.81
2022-08-23T23:54:38.412Z,54.93
2022-08-23T23:57:06.023Z,55.15
2022-08-23T23:59:33.902Z,56.06
